createdAt,value
2022-10-09T00:01:28.692Z,13.23
2022-10-09T00:03:59.995Z,13.50
2022-10-09T00:06:30.118Z,14.57
2022-10-09T00:09:00.149Z,13.50
2022-10-09T00:11:30.072Z,14.43
2022-10-09T00:13:58.621Z,12.73
2022-10-09T00:16:27.550Z,12.80
2022-10-09T00:18:56.315Z,13.67
2022-10-09T00:21:28.106Z,14.07
2022-10-09T00:23:58.221Z,13.50
2022-10-09T00:26:26.720Z,13.40
2022-10-09T00:28:55.233Z,12.73
2022-10-09T00:31:24.520Z,13.13
2022-10-09T00:34:11.663Z,13.50
2022-10-09T00:36:41.452Z,12.43
2022-10-09T00:39:09.817Z,12.00
2022-10-09T00:41:38.127Z,11.97
2022-10-09T00:44:48.971Z,11.97
2022-10-09T00:47:21.760Z,12.40
2022-10-09T00:49:52.392Z,12.50
2022-10-09T00:52:25.097Z,13.80
2022-10-09T00:54:54.912Z,13.53
2022-10-09T00:57:23.447Z,14.90
2022-10-09T00:59:51.823Z,14.67
2022-10-09T01:02:20.290Z,14.60
2022-10-09T01:04:48.587Z,15.70
2022-10-09T01:07:32.229Z,14.50
2022-10-09T01:10:06.891Z,15.37
2022-10-09T01:12:46.816Z,16.37
2022-10-09T01:15:19.507Z,15.90
2022-10-09T01:17:56.519Z,15.33
2022-10-09T01:20:42.034Z,16.97
2022-10-09T01:23:35.973Z,17.13
2022-10-09T01:26:16.247Z,17.57
2022-10-09T01:28:49.421Z,16.63
2022-10-09T01:31:19.416Z,16.33
2022-10-09T01:33:48.414Z,17.20
2022-10-09T01:36:18.727Z,17.47
2022-10-09T01:38:48.327Z,16.40
2022-10-09T01:41:16.840Z,15.77
2022-10-09T01:43:46.429Z,18.00
2022-10-09T01:46:23.287Z,17.23
2022-10-09T01:49:03.824Z,16.47
2022-10-09T01:51:41.838Z,16.00
2022-10-09T01:54:13.067Z,14.90
2022-10-09T01:56:42.488Z,17.03
2022-10-09T01:59:16.345Z,15.90
2022-10-09T02:01:46.110Z,15.60
2022-10-09T02:04:16.140Z,15.03
2022-10-09T02:06:45.275Z,14.83
2022-10-09T02:09:16.574Z,14.73
2022-10-09T02:11:49.414Z,14.73
2022-10-09T02:14:19.122Z,15.40
2022-10-09T02:16:49.592Z,15.87
2022-10-09T02:19:24.068Z,16.30
2022-10-09T02:21:56.545Z,14.50
2022-10-09T02:24:25.806Z,14.63
2022-10-09T02:26:57.453Z,14.07
2022-10-09T02:29:27.373Z,14.37
2022-10-09T02:31:55.783Z,13.43
2022-10-09T02:34:24.279Z,13.20
2022-10-09T02:36:52.788Z,12.20
2022-10-09T02:39:21.194Z,11.87
2022-10-09T02:41:49.461Z,12.90
2022-10-09T02:44:17.760Z,12.23
2022-10-09T02:46:47.620Z,13.13
2022-10-09T02:49:16.024Z,11.47
2022-10-09T02:51:44.254Z,13.33
2022-10-09T02:54:12.599Z,13.00
2022-10-09T02:56:41.077Z,11.97
2022-10-09T02:59:09.532Z,12.37
2022-10-09T03:01:38.200Z,12.03
2022-10-09T03:04:08.087Z,12.43
2022-10-09T03:06:36.638Z,13.30
2022-10-09T03:09:05.173Z,12.40
2022-10-09T03:11:33.548Z,13.20
2022-10-09T03:14:01.885Z,12.50
2022-10-09T03:16:30.174Z,12.90
2022-10-09T03:18:58.600Z,12.57
2022-10-09T03:21:29.028Z,13.57
2022-10-09T03:23:57.745Z,13.20
2022-10-09T03:26:27.950Z,13.13
2022-10-09T03:28:56.898Z,13.37
2022-10-09T03:34:16.001Z,14.57
2022-10-09T03:36:45.688Z,13.60
2022-10-09T03:39:14.155Z,13.67
2022-10-09T03:41:42.467Z,13.73
2022-10-09T03:44:10.692Z,14.07
2022-10-09T03:46:39.160Z,13.63
2022-10-09T03:49:08.081Z,13.30
2022-10-09T03:51:36.491Z,12.90
2022-10-09T03:54:06.764Z,12.13
2022-10-09T03:56:35.183Z,12.60
2022-10-09T03:59:05.609Z,14.10
2022-10-09T04:01:34.059Z,14.67
2022-10-09T04:04:02.427Z,13.20
2022-10-09T04:06:30.723Z,13.67
2022-10-09T04:08:59.131Z,13.70
2022-10-09T04:11:28.796Z,13.47
2022-10-09T04:13:57.257Z,13.70
2022-10-09T04:16:25.766Z,14.77
2022-10-09T04:18:54.032Z,15.20
2022-10-09T04:21:22.274Z,14.00
2022-10-09T04:23:51.573Z,15.57
2022-10-09T04:26:19.887Z,15.13
2022-10-09T04:28:49.737Z,15.20
2022-10-09T04:31:18.273Z,14.50
2022-10-09T04:33:46.595Z,14.80
2022-10-09T04:36:14.945Z,14.77
2022-10-09T04:38:43.260Z,14.30
2022-10-09T04:41:11.940Z,14.20
2022-10-09T04:43:40.661Z,14.27
2022-10-09T04:46:13.314Z,14.63
2022-10-09T04:48:42.726Z,15.10
2022-10-09T04:51:11.381Z,14.73
2022-10-09T04:53:40.993Z,14.60
2022-10-09T04:56:12.134Z,15.57
2022-10-09T04:58:41.045Z,16.43
2022-10-09T05:01:13.363Z,17.30
2022-10-09T05:03:41.900Z,18.07
2022-10-09T05:06:12.099Z,17.27
2022-10-09T05:08:40.946Z,18.00
2022-10-09T05:11:10.635Z,16.80
2022-10-09T05:13:41.077Z,16.50
2022-10-09T05:16:12.975Z,16.47
2022-10-09T05:18:45.619Z,15.50
2022-10-09T05:21:14.341Z,16.70
2022-10-09T05:23:43.080Z,17.47
2022-10-09T05:26:14.180Z,15.20
2022-10-09T05:28:42.970Z,15.50
2022-10-09T05:31:19.921Z,16.90
2022-10-09T05:33:48.803Z,14.10
2022-10-09T05:36:17.784Z,14.90
2022-10-09T05:38:46.559Z,13.90
2022-10-09T05:41:16.437Z,13.63
2022-10-09T05:43:46.312Z,14.40
2022-10-09T05:46:17.965Z,13.87
2022-10-09T05:48:47.981Z,15.53
2022-10-09T05:51:18.797Z,14.13
2022-10-09T05:53:48.532Z,13.60
2022-10-09T05:56:19.118Z,13.10
2022-10-09T05:58:51.948Z,12.30
2022-10-09T06:01:22.541Z,12.53
2022-10-09T06:03:52.015Z,12.07
2022-10-09T06:06:21.441Z,14.70
2022-10-09T06:08:50.131Z,13.03
2022-10-09T06:11:20.109Z,14.07
2022-10-09T06:13:49.182Z,15.00
2022-10-09T06:16:19.073Z,14.90
2022-10-09T06:18:49.790Z,13.93
2022-10-09T06:21:18.225Z,14.00
2022-10-09T06:23:50.252Z,14.57
2022-10-09T06:26:19.155Z,13.43
2022-10-09T06:28:47.940Z,13.13
2022-10-09T06:31:18.307Z,13.07
2022-10-09T06:33:50.530Z,13.63
2022-10-09T06:36:20.806Z,14.10
2022-10-09T06:38:49.598Z,13.30
2022-10-09T06:41:19.331Z,13.70
2022-10-09T06:43:50.814Z,14.10
2022-10-09T06:46:20.386Z,14.00
2022-10-09T06:48:50.301Z,13.33
2022-10-09T06:51:20.237Z,14.17
2022-10-09T06:53:50.629Z,12.67
2022-10-09T06:56:20.147Z,11.67
2022-10-09T06:58:49.288Z,10.93
2022-10-09T07:01:19.390Z,11.60
2022-10-09T07:03:54.287Z,11.80
2022-10-09T07:06:24.215Z,10.30
2022-10-09T07:08:54.818Z,10.10
2022-10-09T07:11:24.907Z,8.90
2022-10-09T07:13:55.779Z,8.90
2022-10-09T07:16:26.181Z,8.93
2022-10-09T07:18:56.199Z,7.87
2022-10-09T07:21:24.984Z,8.60
2022-10-09T07:23:54.104Z,8.63
2022-10-09T07:26:25.492Z,8.80
2022-10-09T07:28:54.815Z,8.93
2022-10-09T07:31:23.638Z,8.77
2022-10-09T07:33:53.303Z,8.27
2022-10-09T07:36:23.509Z,8.57
2022-10-09T07:38:53.028Z,9.17
2022-10-09T07:41:22.552Z,9.40
2022-10-09T07:43:51.001Z,9.53
2022-10-09T07:46:21.311Z,9.37
2022-10-09T07:48:50.794Z,8.90
2022-10-09T07:51:22.917Z,9.07
2022-10-09T07:53:52.201Z,9.27
2022-10-09T07:56:21.993Z,9.87
2022-10-09T07:58:50.957Z,11.77
2022-10-09T08:01:20.692Z,12.27
2022-10-09T08:03:49.837Z,14.97
2022-10-09T08:06:18.845Z,16.77
2022-10-09T08:08:50.694Z,17.63
2022-10-09T08:11:20.378Z,17.00
2022-10-09T08:13:49.885Z,16.30
2022-10-09T08:16:18.997Z,15.60
2022-10-09T08:18:47.593Z,17.93
2022-10-09T08:21:18.088Z,17.77
2022-10-09T08:23:48.052Z,18.60
2022-10-09T08:26:17.495Z,17.10
2022-10-09T08:28:46.200Z,17.90
2022-10-09T08:31:15.854Z,17.30
2022-10-09T08:33:44.781Z,18.37
2022-10-09T08:36:16.184Z,18.33
2022-10-09T08:38:47.577Z,21.53
2022-10-09T08:41:28.483Z,21.17
2022-10-09T08:44:02.351Z,19.93
2022-10-09T08:46:36.617Z,19.10
2022-10-09T08:49:06.400Z,18.93
2022-10-09T08:51:39.231Z,16.40
2022-10-09T08:54:22.376Z,17.07
2022-10-09T08:56:53.805Z,16.90
2022-10-09T08:59:22.157Z,16.47
2022-10-09T09:02:00.168Z,16.40
2022-10-09T09:04:45.060Z,16.37
2022-10-09T09:07:26.226Z,15.93
2022-10-09T09:10:01.608Z,15.00
2022-10-09T09:12:37.232Z,14.73
2022-10-09T09:15:24.247Z,15.90
2022-10-09T09:18:01.979Z,15.77
2022-10-09T09:20:36.870Z,18.43
2022-10-09T09:23:10.910Z,18.17
2022-10-09T09:25:43.527Z,20.20
2022-10-09T09:28:19.499Z,25.07
2022-10-09T09:30:52.068Z,22.70
2022-10-09T09:33:25.923Z,26.07
2022-10-09T09:36:06.288Z,27.30
2022-10-09T09:38:34.677Z,29.70
2022-10-09T09:41:03.233Z,29.23
2022-10-09T09:43:32.976Z,30.57
2022-10-09T09:46:02.908Z,30.53
2022-10-09T09:48:36.393Z,32.10
2022-10-09T09:51:28.866Z,29.67
2022-10-09T09:53:57.648Z,31.43
2022-10-09T09:56:53.205Z,32.37
2022-10-09T09:59:44.815Z,35.00
2022-10-09T10:02:16.456Z,31.53
2022-10-09T10:04:53.166Z,32.70
2022-10-09T10:07:32.569Z,34.63
2022-10-09T10:10:09.100Z,37.00
2022-10-09T10:12:42.065Z,35.60
2022-10-09T10:15:21.401Z,33.70
2022-10-09T10:17:55.798Z,35.73
2022-10-09T10:20:24.708Z,35.57
2022-10-09T10:22:54.351Z,35.00
2022-10-09T10:25:25.665Z,34.70
2022-10-09T10:27:59.382Z,35.50
2022-10-09T10:30:29.613Z,34.37
2022-10-09T10:33:02.958Z,30.10
2022-10-09T10:35:33.975Z,32.90
2022-10-09T10:38:06.932Z,31.77
2022-10-09T10:40:37.860Z,31.13
2022-10-09T10:43:16.926Z,30.17
2022-10-09T10:46:00.506Z,28.23
2022-10-09T10:48:31.988Z,28.20
2022-10-09T10:51:10.692Z,29.30
2022-10-09T10:53:54.652Z,29.27
2022-10-09T10:56:30.279Z,30.20
2022-10-09T10:59:11.338Z,29.17
2022-10-09T11:01:48.190Z,27.23
2022-10-09T11:04:36.497Z,25.60
2022-10-09T11:07:13.718Z,26.30
2022-10-09T11:09:50.291Z,26.60
2022-10-09T11:12:46.905Z,27.00
2022-10-09T11:15:23.323Z,26.40
2022-10-09T11:17:59.225Z,22.93
2022-10-09T11:20:49.575Z,21.73
2022-10-09T11:23:30.070Z,21.80
2022-10-09T11:26:05.537Z,21.60
2022-10-09T11:28:41.356Z,21.10
2022-10-09T11:31:15.010Z,20.40
2022-10-09T11:33:48.504Z,19.10
2022-10-09T11:36:21.394Z,18.93
2022-10-09T11:38:53.881Z,19.43
2022-10-09T11:41:22.572Z,16.60
2022-10-09T11:44:17.947Z,16.10
2022-10-09T11:46:51.298Z,15.37
2022-10-09T11:49:29.886Z,16.40
2022-10-09T11:52:04.563Z,17.07
2022-10-09T11:54:35.211Z,15.93
2022-10-09T11:57:06.727Z,17.47
2022-10-09T11:59:38.017Z,15.93
2022-10-09T12:02:23.982Z,15.93
2022-10-09T12:04:55.497Z,15.40
2022-10-09T12:07:30.798Z,13.77
2022-10-09T12:10:03.573Z,14.10
2022-10-09T12:12:32.617Z,13.00
2022-10-09T12:15:13.187Z,11.50
2022-10-09T12:17:49.730Z,11.93
2022-10-09T12:20:22.187Z,11.47
2022-10-09T12:23:21.292Z,12.70
2022-10-09T12:25:46.664Z,11.87
2022-10-09T12:28:22.731Z,12.47
2022-10-09T12:30:52.936Z,11.33
2022-10-09T12:33:26.363Z,12.07
2022-10-09T12:36:06.445Z,11.87
2022-10-09T12:38:34.684Z,11.10
2022-10-09T12:41:05.977Z,11.60
2022-10-09T12:43:36.425Z,11.03
2022-10-09T12:46:05.102Z,10.70
2022-10-09T12:48:40.423Z,9.27
2022-10-09T12:51:17.867Z,9.77
2022-10-09T12:53:51.466Z,9.20
2022-10-09T12:56:23.850Z,9.00
2022-10-09T12:58:53.415Z,7.90
2022-10-09T13:01:22.426Z,8.10
2022-10-09T13:03:56.204Z,7.63
2022-10-09T13:06:28.572Z,6.83
2022-10-09T13:08:59.232Z,6.77
2022-10-09T13:11:33.339Z,7.03
2022-10-09T13:14:01.677Z,7.40
2022-10-09T13:16:41.020Z,7.57
2022-10-09T13:19:24.724Z,7.03
2022-10-09T13:22:20.965Z,8.23
2022-10-09T13:24:53.141Z,7.10
2022-10-09T13:27:22.120Z,7.10
2022-10-09T13:29:50.555Z,7.00
2022-10-09T13:32:19.819Z,7.13
2022-10-09T13:34:48.181Z,7.67
2022-10-09T13:37:20.228Z,7.73
2022-10-09T13:39:48.866Z,8.10
2022-10-09T13:42:18.231Z,7.70
2022-10-09T13:44:46.656Z,6.93
2022-10-09T13:47:15.605Z,6.23
2022-10-09T13:49:44.741Z,6.23
2022-10-09T13:52:13.043Z,6.43
2022-10-09T13:54:43.233Z,6.60
2022-10-09T13:57:11.659Z,6.80
2022-10-09T13:59:40.084Z,5.70
2022-10-09T14:02:08.803Z,5.60
2022-10-09T14:04:37.093Z,6.37
2022-10-09T14:07:05.396Z,6.07
2022-10-09T14:09:33.742Z,6.70
2022-10-09T14:12:03.651Z,6.30
2022-10-09T14:14:32.034Z,6.00
2022-10-09T14:17:00.412Z,5.93
2022-10-09T14:19:28.719Z,5.73
2022-10-09T14:21:57.670Z,5.30
2022-10-09T14:24:26.642Z,5.30
2022-10-09T14:26:54.996Z,5.90
2022-10-09T14:29:24.752Z,5.30
2022-10-09T14:31:53.051Z,5.10
2022-10-09T14:34:21.969Z,5.43
2022-10-09T14:36:50.477Z,5.70
2022-10-09T14:39:18.721Z,5.40
2022-10-09T14:41:47.036Z,5.23
2022-10-09T14:44:15.384Z,6.30
2022-10-09T14:46:45.072Z,6.17
2022-10-09T14:49:13.720Z,6.77
2022-10-09T14:51:42.631Z,6.10
2022-10-09T14:54:12.521Z,6.10
2022-10-09T14:56:41.381Z,6.20
2022-10-09T14:59:09.618Z,6.83
2022-10-09T15:01:38.011Z,6.13
2022-10-09T15:04:07.801Z,5.80
2022-10-09T15:06:36.235Z,6.90
2022-10-09T15:09:06.233Z,5.90
2022-10-09T15:11:36.032Z,6.43
2022-10-09T15:14:05.791Z,6.23
2022-10-09T15:16:34.071Z,6.27
2022-10-09T15:19:03.004Z,5.90
2022-10-09T15:21:35.278Z,6.67
2022-10-09T15:24:04.932Z,6.80
2022-10-09T15:26:35.726Z,5.90
2022-10-09T15:29:05.616Z,6.00
2022-10-09T15:31:36.037Z,6.40
2022-10-09T15:34:05.053Z,6.57
2022-10-09T15:36:36.724Z,6.60
2022-10-09T15:39:07.424Z,7.37
2022-10-09T15:41:39.167Z,6.93
2022-10-09T15:44:09.931Z,7.23
2022-10-09T15:46:38.198Z,7.60
2022-10-09T15:49:08.019Z,6.77
2022-10-09T15:51:37.777Z,6.90
2022-10-09T15:54:07.443Z,6.83
2022-10-09T15:56:39.670Z,7.00
2022-10-09T15:59:10.094Z,7.30
2022-10-09T16:01:38.401Z,6.80
2022-10-09T16:04:06.889Z,7.20
2022-10-09T16:06:35.214Z,7.97
2022-10-09T16:09:05.565Z,7.53
2022-10-09T16:11:34.722Z,7.70
2022-10-09T16:14:04.387Z,7.27
2022-10-09T16:16:32.966Z,7.50
2022-10-09T16:19:05.170Z,7.30
2022-10-09T16:21:33.606Z,7.70
2022-10-09T16:24:02.349Z,7.17
2022-10-09T16:26:32.108Z,7.57
2022-10-09T16:29:00.812Z,7.23
2022-10-09T16:31:31.318Z,7.43
2022-10-09T16:34:00.155Z,7.10
2022-10-09T16:36:29.117Z,7.50
2022-10-09T16:38:58.293Z,6.33
2022-10-09T16:41:26.806Z,7.43
2022-10-09T16:44:00.167Z,7.30
2022-10-09T16:46:30.498Z,7.93
2022-10-09T16:49:00.553Z,8.23
2022-10-09T16:51:30.952Z,7.70
2022-10-09T16:54:01.930Z,7.53
2022-10-09T16:56:33.347Z,7.73
2022-10-09T16:59:04.927Z,7.60
2022-10-09T17:01:35.463Z,7.30
2022-10-09T17:04:03.807Z,8.30
2022-10-09T17:06:32.211Z,7.80
2022-10-09T17:09:01.131Z,6.67
2022-10-09T17:11:32.330Z,7.00
2022-10-09T17:14:02.197Z,7.27
2022-10-09T17:16:32.631Z,8.13
2022-10-09T17:19:01.831Z,7.23
2022-10-09T17:21:34.181Z,6.60
2022-10-09T17:24:05.315Z,6.17
2022-10-09T17:26:33.850Z,7.20
2022-10-09T17:29:04.622Z,6.90
2022-10-09T17:31:33.192Z,7.00
2022-10-09T17:34:03.040Z,6.77
2022-10-09T17:36:33.475Z,6.77
2022-10-09T17:39:01.940Z,6.50
2022-10-09T17:41:30.794Z,6.47
2022-10-09T17:43:59.693Z,6.40
2022-10-09T17:46:30.519Z,6.87
2022-10-09T17:48:59.719Z,7.07
2022-10-09T17:51:29.966Z,6.47
2022-10-09T17:54:01.139Z,7.73
2022-10-09T17:56:30.175Z,6.93
2022-10-09T17:59:00.057Z,7.73
2022-10-09T18:01:29.849Z,6.70
2022-10-09T18:03:59.071Z,7.20
2022-10-09T18:06:27.596Z,7.70
2022-10-09T18:08:57.943Z,6.80
2022-10-09T18:11:28.514Z,7.60
2022-10-09T18:13:57.312Z,6.50
2022-10-09T18:16:36.343Z,6.50
2022-10-09T18:19:08.012Z,6.27
2022-10-09T18:21:36.595Z,7.00
2022-10-09T18:24:05.248Z,6.40
2022-10-09T18:26:33.952Z,6.50
2022-10-09T18:29:02.705Z,6.40
2022-10-09T18:31:32.736Z,6.10
2022-10-09T18:34:01.995Z,6.43
2022-10-09T18:36:33.700Z,6.37
2022-10-09T18:39:05.077Z,7.27
2022-10-09T18:41:33.503Z,6.30
2022-10-09T18:44:02.706Z,6.90
2022-10-09T18:46:36.909Z,6.07
2022-10-09T18:49:09.596Z,7.00
2022-10-09T18:51:40.785Z,6.70
2022-10-09T18:54:13.275Z,6.30
2022-10-09T18:56:44.105Z,5.80
2022-10-09T18:59:14.745Z,5.70
2022-10-09T19:01:44.422Z,5.50
2022-10-09T19:04:12.928Z,6.43
2022-10-09T19:06:41.313Z,5.93
2022-10-09T19:09:09.762Z,6.33
2022-10-09T19:11:38.600Z,5.83
2022-10-09T19:14:07.637Z,6.20
2022-10-09T19:16:36.614Z,5.90
2022-10-09T19:19:07.442Z,6.40
2022-10-09T19:21:36.493Z,6.30
2022-10-09T19:24:06.707Z,6.70
2022-10-09T19:26:35.903Z,6.10
2022-10-09T19:29:05.241Z,6.50
2022-10-09T19:31:34.773Z,6.60
2022-10-09T19:34:04.601Z,7.87
2022-10-09T19:36:39.195Z,7.43
2022-10-09T19:39:11.232Z,6.83
2022-10-09T19:41:42.407Z,6.97
2022-10-09T19:44:11.711Z,8.00
2022-10-09T19:46:41.698Z,6.40
2022-10-09T19:49:10.901Z,6.00
2022-10-09T19:51:41.372Z,6.97
2022-10-09T19:54:11.068Z,6.97
2022-10-09T19:56:41.271Z,6.93
2022-10-09T19:59:10.439Z,6.00
2022-10-09T20:01:40.664Z,6.80
2022-10-09T20:04:11.280Z,7.63
2022-10-09T20:06:43.106Z,6.73
2022-10-09T20:09:13.427Z,6.63
2022-10-09T20:11:42.085Z,6.20
2022-10-09T20:14:11.509Z,6.93
2022-10-09T20:16:40.557Z,7.00
2022-10-09T20:19:09.582Z,6.30
2022-10-09T20:21:38.221Z,6.53
2022-10-09T20:24:08.414Z,6.90
2022-10-09T20:26:40.893Z,5.70
2022-10-09T20:29:11.262Z,6.70
2022-10-09T20:31:39.815Z,6.47
2022-10-09T20:34:08.363Z,7.03
2022-10-09T20:36:39.143Z,6.37
2022-10-09T20:39:11.987Z,6.60
2022-10-09T20:41:41.394Z,6.63
2022-10-09T20:44:10.108Z,6.53
2022-10-09T20:46:40.567Z,6.53
2022-10-09T20:49:12.125Z,6.47
2022-10-09T20:51:41.271Z,5.53
2022-10-09T20:54:17.748Z,6.33
2022-10-09T20:56:46.187Z,5.70
2022-10-09T20:59:15.286Z,5.57
2022-10-09T21:01:43.693Z,6.30
2022-10-09T21:04:12.437Z,5.90
2022-10-09T21:06:40.757Z,5.57
2022-10-09T21:09:10.696Z,6.23
2022-10-09T21:11:40.393Z,6.43
2022-10-09T21:14:08.885Z,5.60
2022-10-09T21:16:37.209Z,5.23
2022-10-09T21:19:06.764Z,5.60
2022-10-09T21:21:35.746Z,5.70
2022-10-09T21:24:04.548Z,5.80
2022-10-09T21:26:35.947Z,5.47
2022-10-09T21:29:05.176Z,4.73
2022-10-09T21:31:34.213Z,5.70
2022-10-09T21:34:03.135Z,5.33
2022-10-09T21:36:36.603Z,5.20
2022-10-09T21:39:06.503Z,5.20
2022-10-09T21:41:36.787Z,4.87
2022-10-09T21:44:06.667Z,5.10
2022-10-09T21:46:35.390Z,5.70
2022-10-09T21:49:07.478Z,6.63
2022-10-09T21:51:36.047Z,6.37
2022-10-09T21:54:04.381Z,4.57
2022-10-09T21:56:32.757Z,8.67
2022-10-09T21:59:02.420Z,9.53
2022-10-09T22:01:30.836Z,9.97
2022-10-09T22:03:59.221Z,10.87
2022-10-09T22:06:27.669Z,11.10
2022-10-09T22:08:55.962Z,10.23
2022-10-09T22:11:24.407Z,10.97
2022-10-09T22:13:52.768Z,11.73
2022-10-09T22:16:22.451Z,10.80
2022-10-09T22:18:50.890Z,11.07
2022-10-09T22:21:20.256Z,11.60
2022-10-09T22:23:48.751Z,11.60
2022-10-09T22:26:19.428Z,13.47
2022-10-09T22:28:48.330Z,12.23
2022-10-09T22:31:18.742Z,12.77
2022-10-09T22:33:52.965Z,12.57
2022-10-09T22:36:23.951Z,13.00
2022-10-09T22:38:55.218Z,13.13
2022-10-09T22:41:25.203Z,12.00
2022-10-09T22:43:55.775Z,12.90
2022-10-09T22:46:26.195Z,13.40
2022-10-09T22:48:56.459Z,13.10
2022-10-09T22:51:27.176Z,11.90
2022-10-09T22:53:56.465Z,11.93
2022-10-09T22:56:26.677Z,11.87
2022-10-09T22:58:55.299Z,11.50
2022-10-09T23:01:30.443Z,10.53
2022-10-09T23:04:01.771Z,11.80
2022-10-09T23:06:30.272Z,11.13
2022-10-09T23:08:59.318Z,13.53
2022-10-09T23:11:28.377Z,13.70
2022-10-09T23:13:58.907Z,10.70
2022-10-09T23:16:28.345Z,11.07
2022-10-09T23:18:57.949Z,11.47
2022-10-09T23:21:28.440Z,11.13
2022-10-09T23:23:57.120Z,10.90
2022-10-09T23:26:27.161Z,10.80
2022-10-09T23:28:57.219Z,10.83
2022-10-09T23:31:26.640Z,10.90
2022-10-09T23:33:55.921Z,11.30
2022-10-09T23:36:26.732Z,10.10
2022-10-09T23:38:57.381Z,10.03
2022-10-09T23:41:27.420Z,10.50
2022-10-09T23:43:56.190Z,10.60
2022-10-09T23:46:26.896Z,10.77
2022-10-09T23:48:55.758Z,10.73
2022-10-09T23:51:25.884Z,10.63
2022-10-09T23:53:54.393Z,11.90
2022-10-09T23:56:25.889Z,13.30
2022-10-09T23:58:55.143Z,12.30
